Time;durP1;ratioP1;P1;durP2;ratioP2;P2;SDS_P1;SDS_P2;PMS_P1;PMS_P2;Temp;Humidity;BMP_temperature;BMP_pressure;BME280_temperature;BME280_humidity;BME280_pressure;Samples;Min_cycle;Max_cycle;Signal;HPM_P1;HPM_P2
2022/05/20 00:00:36;;;;;;;1.63;0.90;;;;;;;11.53;68.55;95577.00;5092562;28;20195;-60
2022/05/20 00:03:02;;;;;;;1.10;1.07;;;;;;;11.45;67.34;95605.53;5092815;28;20208;-59
2022/05/20 00:05:28;;;;;;;2.50;0.90;;;;;;;11.44;67.27;95603.13;5092561;28;20193;-60
2022/05/20 00:07:54;;;;;;;2.67;1.13;;;;;;;11.43;67.62;95594.66;5091177;28;20203;-61
2022/05/20 00:10:20;;;;;;;3.83;1.30;;;;;;;11.32;67.16;95594.63;5091045;28;20200;-59
2022/05/20 00:12:47;;;;;;;1.57;1.10;;;;;;;11.20;67.58;95592.97;5092687;28;20290;-62
2022/05/20 00:15:20;;;;;;;1.53;1.00;;;;;;;11.17;67.80;95582.22;5092452;28;20200;-60
2022/05/20 00:17:46;;;;;;;1.63;0.80;;;;;;;11.10;68.43;95571.66;5092278;28;20351;-59
2022/05/20 00:20:15;;;;;;;3.53;1.10;;;;;;;11.11;68.58;95572.47;5092283;28;20204;-61
2022/05/20 00:22:41;;;;;;;2.03;1.10;;;;;;;11.07;69.46;95560.91;5090881;28;20203;-60
2022/05/20 00:27:51;;;;;;;2.37;1.13;;;;;;;11.00;69.51;95570.69;5092497;28;20203;-59
2022/05/20 00:30:17;;;;;;;2.13;0.93;;;;;;;10.87;70.60;95557.22;5092076;28;20176;-61
2022/05/20 00:32:43;;;;;;;1.03;0.93;;;;;;;10.70;71.40;95535.56;5092279;28;20660;-60
2022/05/20 00:35:09;;;;;;;3.10;1.40;;;;;;;10.58;73.39;95531.34;5091912;28;20213;-62
2022/05/20 00:37:35;;;;;;;1.30;1.00;;;;;;;10.50;74.47;95512.44;5092330;28;20215;-58
2022/05/20 00:40:00;;;;;;;4.87;1.20;;;;;;;10.33;75.99;95507.72;5091179;28;20176;-59
2022/05/20 00:42:26;;;;;;;2.00;1.00;;;;;;;10.23;77.32;95516.91;5090834;28;20215;-61
2022/05/20 00:44:51;;;;;;;3.17;1.03;;;;;;;10.06;79.01;95508.69;5091950;28;20309;-61
2022/05/20 00:47:17;;;;;;;1.90;1.40;;;;;;;10.07;79.96;95519.66;5091967;28;20225;-62
2022/05/20 00:49:52;;;;;;;2.43;1.57;;;;;;;9.93;80.78;95520.63;5091963;28;20188;-58
2022/05/20 00:52:21;;;;;;;2.07;1.10;;;;;;;9.99;81.91;95529.56;5091917;28;20164;-59
2022/05/20 00:54:51;;;;;;;2.67;1.20;;;;;;;9.96;81.60;95528.03;5090504;28;20232;-61
2022/05/20 00:57:38;;;;;;;2.57;1.40;;;;;;;9.87;82.82;95525.31;5090222;28;20229;-62
2022/05/20 01:00:13;;;;;;;1.23;1.07;;;;;;;9.73;84.13;95522.88;5090610;28;20184;-61
2022/05/20 01:02:40;;;;;;;2.23;1.13;;;;;;;9.74;84.11;95532.94;5090785;28;20665;-60
2022/05/20 01:05:23;;;;;;;2.27;1.47;;;;;;;9.70;84.10;95528.16;5090629;28;20180;-62
2022/05/20 01:07:49;;;;;;;1.70;1.30;;;;;;;9.77;85.07;95526.84;5092235;28;20249;-61
2022/05/20 01:10:14;;;;;;;1.00;0.90;;;;;;;9.85;84.42;95540.66;5090485;28;20183;-62
2022/05/20 01:12:40;;;;;;;1.90;1.20;;;;;;;9.86;84.67;95539.72;5091854;28;20197;-61
2022/05/20 01:15:07;;;;;;;3.10;1.20;;;;;;;9.98;82.24;95564.28;5091776;28;20211;-60
2022/05/20 01:17:33;;;;;;;2.53;1.20;;;;;;;9.93;82.34;95561.25;5091826;28;20208;-59
2022/05/20 01:19:59;;;;;;;2.43;1.07;;;;;;;9.74;83.76;95539.72;5091933;28;20189;-60
2022/05/20 01:22:53;;;;;;;1.23;1.13;;;;;;;9.76;83.42;95546.34;5091747;28;20645;-61
2022/05/20 01:25:21;;;;;;;1.67;1.30;;;;;;;9.73;82.60;95551.63;5091845;28;20172;-60
2022/05/20 01:27:46;;;;;;;3.50;0.97;;;;;;;9.73;83.40;95546.56;5091639;28;20658;-61
2022/05/20 01:30:17;;;;;;;1.40;1.30;;;;;;;9.74;83.29;95545.63;5091584;28;20250;-59
2022/05/20 01:32:43;;;;;;;1.50;1.40;;;;;;;9.83;83.09;95554.34;5091694;28;20228;-60
2022/05/20 01:35:14;;;;;;;1.73;1.27;;;;;;;9.82;81.90;95560.34;5093081;28;20298;-61
2022/05/20 01:37:40;;;;;;;1.73;1.20;;;;;;;9.78;81.58;95566.53;5094012;28;20711;-60
2022/05/20 01:40:07;;;;;;;1.67;0.97;;;;;;;9.80;82.21;95557.09;5095476;28;20185;-61
2022/05/20 01:42:59;;;;;;;4.03;1.50;;;;;;;9.73;81.28;95561.78;5095297;28;20264;-59
2022/05/20 01:45:53;;;;;;;2.80;1.47;;;;;;;9.66;81.87;95557.19;5095336;28;20183;-61
2022/05/20 01:48:25;;;;;;;1.33;1.00;;;;;;;9.50;81.73;95549.81;5095172;28;20687;-59
2022/05/20 01:50:54;;;;;;;16.33;1.20;;;;;;;9.49;82.57;95542.28;5095498;28;20692;-60
2022/05/20 01:53:42;;;;;;;3.70;1.13;;;;;;;9.52;82.17;95555.59;5093662;28;20282;-62
2022/05/20 01:56:19;;;;;;;3.20;0.97;;;;;;;9.62;82.60;95548.97;5093417;28;20266;-60
2022/05/20 01:58:56;;;;;;;3.10;1.43;;;;;;;9.80;81.96;95554.56;5093380;28;20204;-61
2022/05/20 02:01:38;;;;;;;1.37;1.03;;;;;;;9.92;79.81;95594.34;5093731;28;20626;-60
2022/05/20 02:04:09;;;;;;;2.53;1.10;;;;;;;9.72;79.73;95588.06;5095305;28;20236;-60
2022/05/20 02:06:44;;;;;;;1.67;1.40;;;;;;;9.58;80.79;95567.88;5095002;28;20177;-59
2022/05/20 02:09:17;;;;;;;2.13;1.10;;;;;;;9.42;82.15;95546.13;5095100;28;20218;-62
2022/05/20 02:11:49;;;;;;;2.23;1.10;;;;;;;9.36;82.70;95542.28;5082952;23;20601;-61
2022/05/20 02:14:25;;;;;;;1.20;1.10;;;;;;;9.41;82.37;95555.50;5094409;28;20200;-59
2022/05/20 02:17:02;;;;;;;1.13;1.03;;;;;;;9.25;84.74;95529.50;5094847;28;20184;-59
2022/05/20 02:19:39;;;;;;;2.73;1.07;;;;;;;9.14;85.78;95525.13;5094512;28;20221;-60
2022/05/20 02:22:11;;;;;;;1.27;1.00;;;;;;;9.07;86.51;95525.63;5094351;28;20262;-59
2022/05/20 02:24:40;;;;;;;1.50;0.80;;;;;;;8.90;86.94;95516.56;5094088;28;20200;-60
2022/05/20 02:27:08;;;;;;;3.33;1.43;;;;;;;8.85;88.06;95522.81;5094721;28;20196;-59
2022/05/20 02:29:50;;;;;;;3.50;1.53;;;;;;;8.79;89.20;95521.50;5094216;28;20195;-59
2022/05/20 02:32:27;;;;;;;2.47;1.10;;;;;;;8.76;89.62;95533.56;5093020;28;20612;-61
2022/05/20 02:34:53;;;;;;;2.27;1.20;;;;;;;8.73;89.92;95538.81;5094247;28;20219;-61
2022/05/20 02:37:18;;;;;;;2.57;1.33;;;;;;;8.68;89.70;95535.78;5092715;28;20188;-61
2022/05/20 02:39:44;;;;;;;1.93;0.93;;;;;;;8.62;90.39;95536.16;5094222;28;20180;-60
2022/05/20 02:42:09;;;;;;;3.00;1.43;;;;;;;8.69;90.34;95534.84;5092782;28;20209;-60
2022/05/20 02:44:34;;;;;;;2.00;1.30;;;;;;;8.74;89.48;95532.84;5092698;28;20231;-61
2022/05/20 02:47:00;;;;;;;1.83;1.13;;;;;;;8.78;88.84;95550.31;5093630;28;20640;-65
2022/05/20 02:49:25;;;;;;;1.70;1.40;;;;;;;8.79;89.86;95549.38;5098778;22;20647;-61
2022/05/20 02:51:50;;;;;;;3.27;1.10;;;;;;;8.70;89.47;95537.31;5093927;28;20206;-61
2022/05/20 02:54:16;;;;;;;2.30;1.00;;;;;;;8.68;89.86;95540.84;5089497;28;20250;-60
2022/05/20 02:56:41;;;;;;;1.27;1.17;;;;;;;8.63;91.15;95530.16;5093711;28;20177;-59
2022/05/20 03:04:34;;;;;;;2.07;1.07;;;;;;;8.92;87.39;95562.91;5094377;28;20242;-63
2022/05/20 03:07:00;;;;;;;4.30;1.33;;;;;;;8.89;87.43;95552.13;5092331;28;20612;-61
2022/05/20 03:09:26;;;;;;;3.57;1.43;;;;;;;9.01;87.18;95553.88;5093827;28;20203;-60
2022/05/20 03:11:52;;;;;;;2.53;1.60;;;;;;;9.02;88.15;95547.94;5093504;28;20180;-60
2022/05/20 03:14:20;;;;;;;1.43;1.10;;;;;;;8.91;88.25;95535.94;5093857;28;20211;-60
2022/05/20 03:16:47;;;;;;;5.33;1.27;;;;;;;8.81;88.08;95545.03;5093265;28;20661;-59
2022/05/20 03:19:13;;;;;;;1.80;1.27;;;;;;;8.72;87.83;95545.63;5093297;28;20196;-59
2022/05/20 03:21:39;;;;;;;1.10;1.00;;;;;;;8.72;89.03;95545.63;5092234;28;20566;-60
2022/05/20 03:24:06;;;;;;;4.57;1.77;;;;;;;8.87;88.92;95538.75;5093710;28;20204;-61
2022/05/20 03:26:32;;;;;;;2.87;1.40;;;;;;;9.04;87.25;95552.00;5093291;28;20285;-59
2022/05/20 03:28:59;;;;;;;2.70;1.40;;;;;;;9.19;87.51;95556.06;5093617;28;20231;-61
2022/05/20 03:31:26;;;;;;;2.20;1.33;;;;;;;9.28;85.84;95580.03;5093065;28;20178;-58
2022/05/20 03:33:51;;;;;;;3.30;1.40;;;;;;;9.43;84.29;95601.88;5093327;28;20238;-60
2022/05/20 03:36:17;;;;;;;4.17;1.20;;;;;;;9.55;81.83;95623.09;5093120;28;20281;-60
2022/05/20 03:38:42;;;;;;;1.77;1.47;;;;;;;9.51;82.62;95614.91;5093319;28;20226;-61
2022/05/20 03:41:08;;;;;;;2.60;1.20;;;;;;;9.55;82.23;95616.31;5093048;28;20176;-61
2022/05/20 03:43:34;;;;;;;3.90;1.30;;;;;;;9.66;83.56;95593.56;5091684;28;20701;-61
2022/05/20 03:46:00;;;;;;;3.57;1.50;;;;;;;9.68;82.99;95617.13;5093094;28;20172;-60
2022/05/20 03:48:26;;;;;;;3.00;1.27;;;;;;;9.83;80.22;95659.28;5092618;28;20295;-62
2022/05/20 03:50:51;;;;;;;1.67;1.00;;;;;;;9.88;80.43;95657.25;5092959;28;20260;-61
2022/05/20 03:53:17;;;;;;;6.33;1.57;;;;;;;9.67;80.46;95658.66;5092776;28;20314;-62
2022/05/20 03:55:43;;;;;;;2.63;1.10;;;;;;;9.68;79.97;95657.75;5092659;28;20200;-60
2022/05/20 03:58:08;;;;;;;1.97;1.30;;;;;;;9.55;81.49;95646.78;5092039;28;20560;-61
2022/05/20 04:03:23;;;;;;;2.13;1.30;;;;;;;9.53;82.98;95633.38;5073006;28;20614;-60
2022/05/20 04:05:49;;;;;;;3.23;1.37;;;;;;;9.49;83.24;95624.34;5092406;28;20630;-61
2022/05/20 04:08:15;;;;;;;1.03;0.93;;;;;;;9.68;83.59;95623.91;5092842;28;20291;-61
2022/05/20 04:10:41;;;;;;;2.30;1.67;;;;;;;9.53;83.84;95607.16;5091053;28;20180;-60
2022/05/20 04:13:07;;;;;;;2.77;1.30;;;;;;;9.65;85.33;95591.13;5093419;23;20656;-60
2022/05/20 04:15:33;;;;;;;2.87;1.43;;;;;;;9.84;83.39;95617.75;5092330;28;20641;-60
2022/05/20 04:17:58;;;;;;;1.87;1.30;;;;;;;9.92;83.98;95612.97;5092685;28;20202;-61
2022/05/20 04:20:24;;;;;;;2.87;1.40;;;;;;;9.80;83.59;95618.84;5092258;28;20251;-60
2022/05/20 04:22:49;;;;;;;6.50;1.90;;;;;;;9.68;85.02;95599.34;5092314;28;20708;-59
2022/05/20 04:25:15;;;;;;;3.30;2.10;;;;;;;9.60;85.46;95593.16;5092263;28;20184;-60
2022/05/20 04:27:41;;;;;;;2.77;1.70;;;;;;;9.65;85.68;95586.06;5092386;28;20723;-61
2022/05/20 04:30:08;;;;;;;3.07;2.10;;;;;;;9.88;85.59;95592.94;5092271;28;20660;-60
2022/05/20 04:32:34;;;;;;;5.60;1.57;;;;;;;10.22;84.94;95609.31;5092285;28;20188;-62
2022/05/20 04:35:00;;;;;;;4.13;1.50;;;;;;;10.23;83.21;95616.81;5090720;28;20570;-61
2022/05/20 04:37:27;;;;;;;2.83;1.30;;;;;;;10.17;84.08;95612.16;5090809;28;20728;-62
2022/05/20 04:39:53;;;;;;;3.10;1.60;;;;;;;10.35;85.21;95600.75;5090760;28;20233;-58
2022/05/20 04:47:47;;;;;;;5.57;1.73;;;;;;;10.43;81.24;95656.94;5092374;28;20210;-60
2022/05/20 04:50:13;;;;;;;3.60;1.50;;;;;;;10.46;81.26;95650.84;5092002;28;20172;-60
2022/05/20 04:52:38;;;;;;;2.87;1.60;;;;;;;10.52;81.09;95661.41;5092197;28;20203;-62
2022/05/20 04:55:12;;;;;;;1.90;1.60;;;;;;;10.47;82.50;95640.56;5090781;28;20200;-62
2022/05/20 04:57:52;;;;;;;3.27;1.40;;;;;;;10.60;83.27;95638.81;5090824;28;20250;-59
2022/05/20 05:00:25;;;;;;;2.80;1.47;;;;;;;11.11;80.55;95682.69;5092297;28;20184;-62
2022/05/20 05:02:52;;;;;;;4.30;2.00;;;;;;;11.05;77.77;95718.75;5092173;28;20207;-61
2022/05/20 05:05:23;;;;;;;5.87;2.30;;;;;;;11.06;78.17;95704.31;5091984;28;20184;-61
2022/05/20 05:07:51;;;;;;;5.60;1.87;;;;;;;11.04;78.63;95685.78;5092687;28;20201;-62
2022/05/20 05:10:21;;;;;;;4.17;2.17;;;;;;;11.01;79.44;95681.72;5093632;28;20259;-60
2022/05/20 05:12:47;;;;;;;3.27;1.93;;;;;;;11.00;80.60;95667.38;5096005;28;20760;-61
2022/05/20 05:15:13;;;;;;;5.23;2.53;;;;;;;11.04;80.68;95678.97;5095990;28;20233;-60
2022/05/20 05:20:25;;;;;;;6.63;2.80;;;;;;;11.45;79.63;95691.31;5095828;28;20254;-60
2022/05/20 05:22:51;;;;;;;8.70;2.70;;;;;;;11.63;79.02;95705.28;5095662;28;20286;-64
2022/05/20 05:25:20;;;;;;;4.70;2.53;;;;;;;11.48;78.61;95701.28;5095436;28;20181;-63
2022/05/20 05:27:46;;;;;;;4.73;2.40;;;;;;;11.57;78.54;95687.91;5095273;28;20564;-60
2022/05/20 05:30:12;;;;;;;7.60;3.17;;;;;;;12.02;76.96;95722.00;5095203;28;20188;-61
2022/05/20 05:32:39;;;;;;;9.40;2.50;;;;;;;12.13;76.40;95722.00;5095418;28;20223;-61
2022/05/20 05:35:07;;;;;;;7.47;2.50;;;;;;;12.28;74.44;95749.72;5095370;28;20653;-59
2022/05/20 05:37:40;;;;;;;4.60;2.03;;;;;;;12.38;72.55;95775.38;5094132;28;20172;-60
2022/05/20 05:40:10;;;;;;;3.37;2.70;;;;;;;12.37;72.64;95771.19;5095135;28;20256;-62
2022/05/20 05:42:36;;;;;;;3.37;2.13;;;;;;;12.47;72.24;95759.38;5093776;28;20652;-59
2022/05/20 05:45:05;;;;;;;5.23;2.30;;;;;;;12.57;71.02;95775.63;5095132;28;20208;-60
2022/05/20 05:47:30;;;;;;;4.57;1.83;;;;;;;12.47;69.74;95793.34;5093609;28;20688;-61
2022/05/20 05:49:56;;;;;;;3.10;2.40;;;;;;;12.32;72.72;95730.72;5094835;28;20529;-60
2022/05/20 05:52:22;;;;;;;4.20;1.97;;;;;;;12.20;73.34;95715.53;5094710;28;20685;-60
2022/05/20 05:54:47;;;;;;;2.77;2.10;;;;;;;12.29;72.87;95727.59;5094858;28;20204;-58
2022/05/20 05:57:13;;;;;;;4.53;1.93;;;;;;;12.57;72.70;95727.16;5094095;28;20172;-61
2022/05/20 05:59:38;;;;;;;5.20;2.53;;;;;;;12.74;72.14;95744.56;5094836;28;20189;-63
2022/05/20 06:02:05;;;;;;;3.90;2.90;;;;;;;12.85;71.99;95733.53;5094895;28;20229;-60
2022/05/20 06:04:31;;;;;;;3.07;2.30;;;;;;;13.14;71.25;95755.94;5095192;28;20661;-59
2022/05/20 06:06:57;;;;;;;4.83;3.00;;;;;;;13.22;68.96;95791.09;5095022;28;20193;-62
2022/05/20 06:09:23;;;;;;;3.53;2.50;;;;;;;13.30;69.92;95779.38;5095351;28;20204;-62
2022/05/20 06:11:49;;;;;;;10.73;3.07;;;;;;;13.30;69.50;95771.69;5094874;28;20183;-60
2022/05/20 06:14:15;;;;;;;8.90;2.75;;;;;;;13.53;69.99;95766.53;5094680;28;20230;-60
2022/05/20 06:16:41;;;;;;;5.50;3.07;;;;;;;13.48;70.57;95747.28;5094696;28;20259;-60
2022/05/20 06:19:07;;;;;;;8.65;2.90;;;;;;;13.82;69.54;95770.97;5094800;28;20334;-61
2022/05/20 06:21:32;;;;;;;5.43;3.00;;;;;;;13.91;68.32;95779.66;5093644;28;20187;-60
2022/05/20 06:24:00;;;;;;;5.77;2.97;;;;;;;13.89;68.48;95776.41;5093131;28;20615;-60
2022/05/20 06:26:29;;;;;;;8.87;3.07;;;;;;;13.96;67.76;95788.56;5093175;28;20650;-62
2022/05/20 06:28:55;;;;;;;5.40;3.00;;;;;;;14.06;68.00;95780.97;5093219;28;20269;-60
2022/05/20 06:31:26;;;;;;;3.90;3.03;;;;;;;14.02;67.63;95784.72;5093097;28;20573;-59
2022/05/20 06:33:52;;;;;;;8.63;3.77;;;;;;;13.97;66.94;95787.66;5094562;28;20660;-60
2022/05/20 06:41:47;;;;;;;5.88;3.05;;;;;;;14.11;66.59;95776.31;5093860;28;20587;-61
2022/05/20 06:44:12;;;;;;;3.95;2.83;;;;;;;14.32;66.43;95793.31;5093918;28;20226;-61
2022/05/20 06:46:38;;;;;;;10.13;3.27;;;;;;;14.40;66.19;95789.34;5093859;28;20210;-63
2022/05/20 06:49:04;;;;;;;8.93;3.30;;;;;;;14.47;67.30;95760.56;5092677;28;20231;-60
2022/05/20 06:51:33;;;;;;;10.48;4.07;;;;;;;14.27;68.55;95728.91;5075753;28;20689;-59
2022/05/20 06:54:00;;;;;;;11.40;4.65;;;;;;;14.26;69.90;95711.13;5093771;28;20215;-60
2022/05/20 06:56:30;;;;;;;9.57;4.82;;;;;;;14.27;68.43;95731.47;5093640;28;20216;-59
2022/05/20 06:58:57;;;;;;;15.35;4.30;;;;;;;14.54;67.67;95755.75;5094325;28;20719;-58
2022/05/20 07:01:23;;;;;;;13.73;4.40;;;;;;;14.70;67.12;95758.66;5093749;28;20272;-59
2022/05/20 07:03:49;;;;;;;6.18;4.53;;;;;;;14.75;68.54;95736.03;5093830;28;20287;-61
2022/05/20 07:06:16;;;;;;;10.43;4.53;;;;;;;14.81;66.81;95769.63;5092232;28;20628;-60
2022/05/20 07:08:46;;;;;;;9.55;4.85;;;;;;;15.24;67.36;95745.50;5093658;28;20188;-60
2022/05/20 07:11:12;;;;;;;12.15;4.05;;;;;;;15.59;64.94;95792.03;5093345;28;20260;-59
2022/05/20 07:13:38;;;;;;;11.05;4.78;;;;;;;15.68;63.94;95812.53;5093546;28;20232;-61
2022/05/20 07:16:04;;;;;;;14.95;4.97;;;;;;;15.59;64.03;95797.16;5091905;28;20295;-61
2022/05/20 07:18:30;;;;;;;9.50;4.47;;;;;;;15.60;64.19;95803.88;5093483;28;20200;-60
2022/05/20 07:20:56;;;;;;;14.15;5.05;;;;;;;15.64;63.27;95820.63;5092994;28;20183;-61
2022/05/20 07:23:24;;;;;;;9.27;5.28;;;;;;;15.76;64.61;95788.78;5092978;28;20724;-61
2022/05/20 07:25:51;;;;;;;10.38;5.22;;;;;;;16.04;64.10;95787.22;5093022;28;20263;-61
2022/05/20 07:28:17;;;;;;;12.45;5.10;;;;;;;16.04;64.20;95787.22;5092857;28;20200;-62
2022/05/20 07:30:43;;;;;;;11.52;5.03;;;;;;;16.29;63.22;95805.44;5093181;28;20551;-62
2022/05/20 07:33:08;;;;;;;15.68;4.57;;;;;;;16.56;62.38;95833.00;5092813;28;20610;-58
2022/05/20 07:35:35;;;;;;;8.63;4.07;;;;;;;16.91;62.08;95834.97;5092812;28;20184;-62
2022/05/20 07:38:01;;;;;;;7.75;4.80;;;;;;;17.05;59.40;95885.91;5092902;28;20211;-60
2022/05/20 07:40:26;;;;;;;12.00;5.53;;;;;;;16.90;59.09;95871.84;5092973;28;20172;-59
2022/05/20 07:42:52;;;;;;;9.32;4.97;;;;;;;17.07;60.32;95830.06;5091426;28;20223;-59
2022/05/20 07:45:18;;;;;;;18.13;5.30;;;;;;;17.07;58.38;95869.38;5092819;28;20176;-59
2022/05/20 07:47:45;;;;;;;9.70;4.80;;;;;;;17.12;56.90;95899.81;5093004;28;20211;-61
2022/05/20 07:50:12;;;;;;;14.48;5.10;;;;;;;16.86;55.63;95915.00;5092982;28;20187;-62
2022/05/20 07:55:31;;;;;;;4.90;3.45;;;;;;;17.60;57.06;95856.75;5092672;28;20207;-61
2022/05/20 07:57:57;;;;;;;10.93;4.40;;;;;;;17.77;55.95;95879.16;5092627;28;20588;-60
2022/05/20 08:00:24;;;;;;;7.97;4.00;;;;;;;17.77;56.00;95868.88;5092700;28;20285;-60
2022/05/20 08:02:52;;;;;;;14.23;4.30;;;;;;;18.35;55.27;95880.41;5092451;28;20212;-62
2022/05/20 08:05:20;;;;;;;12.43;4.68;;;;;;;18.44;55.04;95876.19;5091089;28;20173;-60
2022/05/20 08:07:47;;;;;;;8.70;4.85;;;;;;;18.26;50.42;95966.25;5092773;28;20673;-61
2022/05/20 08:10:22;;;;;;;12.10;4.40;;;;;;;18.25;50.75;95936.31;5092744;28;20203;-60
2022/05/20 08:12:49;;;;;;;10.90;4.45;;;;;;;18.29;53.12;95862.97;5092357;28;20602;-60
2022/05/20 08:15:16;;;;;;;10.38;4.60;;;;;;;18.25;52.40;95882.25;5091576;28;20196;-62
2022/05/20 08:17:43;;;;;;;13.07;4.75;;;;;;;18.22;50.65;95928.88;5091815;28;20552;-60
2022/05/20 08:20:22;;;;;;;8.98;3.83;;;;;;;18.20;49.71;95946.22;5091349;28;20178;-62
2022/05/20 08:22:51;;;;;;;10.23;4.75;;;;;;;18.20;50.76;95910.19;5090420;28;20287;-59
2022/05/20 08:25:17;;;;;;;10.52;5.38;;;;;;;18.17;49.87;95922.53;5091548;28;20176;-59
2022/05/20 08:27:43;;;;;;;12.82;5.63;;;;;;;18.59;49.38;95933.13;5091458;28;20261;-61
2022/05/20 08:30:21;;;;;;;11.63;4.90;;;;;;;18.74;50.99;95874.97;5091437;28;20589;-65
2022/05/20 08:32:47;;;;;;;8.65;5.00;;;;;;;18.79;49.57;95925.09;5090161;28;20204;-62
2022/05/20 08:35:13;;;;;;;9.05;5.38;;;;;;;19.18;51.00;95871.41;5091327;28;20188;-60
2022/05/20 08:37:45;;;;;;;7.95;4.15;;;;;;;19.27;50.12;95904.00;5091582;28;20204;-61
2022/05/20 08:40:20;;;;;;;10.00;4.20;;;;;;;19.39;50.53;95874.47;5091369;28;20178;-59
2022/05/20 08:42:47;;;;;;;14.93;4.95;;;;;;;19.84;46.42;95978.22;5089966;28;20215;-62
2022/05/20 08:45:15;;;;;;;10.50;4.20;;;;;;;19.73;46.04;95975.91;5092812;28;20172;-60
2022/05/20 08:47:46;;;;;;;8.07;4.45;;;;;;;20.12;47.63;95929.75;5095028;28;20314;-62
2022/05/20 08:50:15;;;;;;;9.55;3.60;;;;;;;19.95;42.62;96059.75;5093628;28;20172;-60
2022/05/20 08:52:42;;;;;;;5.72;3.28;;;;;;;19.60;40.49;96108.88;5094975;28;20204;-61
2022/05/20 08:55:10;;;;;;;5.93;2.97;;;;;;;19.89;42.21;96026.81;5094972;28;20750;-61
2022/05/20 08:57:36;;;;;;;11.02;3.40;;;;;;;20.12;40.61;96068.41;5094657;28;20198;-62
2022/05/20 09:00:05;;;;;;;10.88;3.92;;;;;;;20.31;39.67;96021.72;5094565;28;20179;-60
2022/05/20 09:02:31;;;;;;;8.85;3.15;;;;;;;20.43;43.08;95896.44;5094444;28;20180;-62
2022/05/20 09:04:57;;;;;;;8.05;3.40;;;;;;;20.55;40.25;95977.84;5093561;28;20180;-61
2022/05/20 09:07:23;;;;;;;12.18;5.13;;;;;;;20.60;38.44;96006.63;5094784;28;20324;-60
2022/05/20 09:09:56;;;;;;;5.07;3.13;;;;;;;20.93;37.95;95964.34;5094616;28;20246;-61
2022/05/20 09:15:44;;;;;;;8.48;3.47;;;;;;;21.43;41.07;95837.41;5130266;27;20493;-60
2022/05/20 09:18:42;;;;;;;4.18;2.83;;;;;;;21.62;40.52;95848.16;5130327;28;20255;-62
2022/05/20 09:21:24;;;;;;;6.28;2.80;;;;;;;22.01;38.34;95891.38;5106664;28;20194;-62
2022/05/20 09:23:56;;;;;;;5.55;3.22;;;;;;;22.08;37.63;95894.94;5129014;28;20243;-63
2022/05/20 09:26:32;;;;;;;10.95;3.85;;;;;;;21.67;34.71;95953.81;5130532;28;20186;-62
2022/05/20 09:29:08;;;;;;;6.28;2.90;;;;;;;21.24;35.70;95916.19;5130592;28;20205;-63
2022/05/20 09:31:48;;;;;;;6.82;2.85;;;;;;;21.41;35.52;95902.22;5130401;28;20700;-62
2022/05/20 09:34:33;;;;;;;5.10;2.83;;;;;;;21.70;35.75;95881.78;5130431;28;20195;-62
2022/05/20 09:37:16;;;;;;;6.57;2.80;;;;;;;22.49;35.55;95891.09;5128701;28;20319;-61
2022/05/20 09:39:50;;;;;;;10.10;2.65;;;;;;;22.51;34.06;95913.28;5130436;28;20543;-60
2022/05/20 09:42:24;;;;;;;3.72;2.10;;;;;;;22.64;35.87;95845.34;5129972;28;20675;-61
2022/05/20 09:44:56;;;;;;;5.07;2.50;;;;;;;23.07;34.06;95878.34;5128671;28;20271;-60
2022/05/20 09:47:31;;;;;;;5.28;2.28;;;;;;;23.54;34.68;95846.09;5129741;28;20167;-64
2022/05/20 09:50:26;;;;;;;5.03;1.85;;;;;;;23.93;33.50;95885.56;5129542;28;20186;-60
2022/05/20 09:53:00;;;;;;;3.70;2.03;;;;;;;24.16;32.90;95897.44;5129791;27;20260;-63
2022/05/20 09:55:34;;;;;;;2.83;1.60;;;;;;;24.18;31.66;95898.06;5129470;28;20172;-62
2022/05/20 09:58:15;;;;;;;4.15;1.75;;;;;;;24.23;28.14;95980.72;5130014;28;20190;-61
2022/05/20 10:01:07;;;;;;;9.25;2.20;;;;;;;23.85;29.50;95886.47;5129515;28;20574;-60
2022/05/20 10:03:37;;;;;;;4.72;1.83;;;;;;;23.63;27.16;95928.94;5128879;28;20219;-60
2022/05/20 10:06:02;;;;;;;4.28;2.05;;;;;;;23.41;27.21;95908.22;5127965;28;20195;-60
2022/05/20 10:08:39;;;;;;;3.15;1.60;;;;;;;23.00;27.28;95900.78;5129396;28;20256;-61
2022/05/20 10:11:18;;;;;;;5.13;2.13;;;;;;;23.86;28.37;95833.50;5127753;28;20302;-59
2022/05/20 10:13:46;;;;;;;4.18;1.80;;;;;;;23.98;29.37;95807.84;5129352;28;20202;-62
2022/05/20 10:16:28;;;;;;;4.13;1.95;;;;;;;24.04;26.71;95879.91;5127915;28;20711;-63
2022/05/20 10:19:21;;;;;;;3.35;1.88;;;;;;;24.72;28.65;95811.78;5129050;28;20237;-61
2022/05/20 10:22:24;;;;;;;4.88;2.05;;;;;;;24.38;25.20;95889.69;5129063;27;20182;-62
2022/05/20 10:25:08;;;;;;;2.45;2.25;;;;;;;25.22;27.11;95824.59;5125658;28;20213;-63
2022/05/20 10:27:34;;;;;;;3.20;2.20;;;;;;;24.59;24.84;95854.09;5114214;28;20230;-61
2022/05/20 10:33:05;;;;;;;5.80;2.10;;;;;;;24.62;24.57;95816.50;5115208;28;20218;-63
2022/05/20 10:35:45;;;;;;;7.35;1.60;;;;;;;24.51;25.21;95785.78;5115067;28;20179;-60
2022/05/20 10:38:26;;;;;;;4.10;1.20;;;;;;;24.82;25.38;95766.28;5115250;28;20611;-64
2022/05/20 10:40:59;;;;;;;6.45;1.55;;;;;;;25.56;24.54;95784.72;5113826;28;20643;-62
2022/05/20 10:48:34;;;;;;;4.75;1.73;;;;;;;26.09;23.73;95802.19;5115074;28;20207;-64
2022/05/20 10:49:15;;;;;;;3.75;1.40;;;;;;;26.77;24.20;95764.50;5114943;28;20210;-59
2022/05/20 10:51:58;;;;;;;3.42;1.42;;;;;;;26.16;24.76;95745.59;5114886;28;20672;-62
2022/05/20 10:54:58;;;;;;;3.00;1.42;;;;;;;25.74;23.51;95759.75;5113654;28;20207;-61
2022/05/20 10:57:48;;;;;;;4.43;1.70;;;;;;;25.39;22.66;95779.00;5113413;28;20568;-62
2022/05/20 11:00:19;;;;;;;4.97;1.70;;;;;;;26.12;22.80;95777.50;5115044;28;20607;-62
2022/05/20 11:03:03;;;;;;;2.33;1.48;;;;;;;26.03;21.38;95795.09;5114767;28;20210;-61
2022/05/20 11:05:50;;;;;;;5.13;1.90;;;;;;;26.05;23.24;95738.34;5114778;28;20207;-61
2022/05/20 11:08:43;;;;;;;2.33;1.35;;;;;;;26.54;24.06;95691.84;5113170;28;20261;-63
2022/05/20 11:11:19;;;;;;;3.65;1.45;;;;;;;27.39;24.49;95685.66;5114611;28;20172;-63
2022/05/20 11:13:54;;;;;;;1.92;1.13;;;;;;;27.83;22.95;95703.09;5114528;28;20203;-60
2022/05/20 11:16:20;;;;;;;1.13;1.00;;;;;;;27.89;22.01;95734.44;5113138;28;20175;-60
2022/05/20 11:19:19;;;;;;;5.13;1.65;;;;;;;27.70;20.11;95742.38;5114665;28;20214;-61
2022/05/20 11:22:14;;;;;;;2.45;1.33;;;;;;;27.95;21.89;95677.88;5114498;28;20175;-61
2022/05/20 11:25:00;;;;;;;1.27;1.10;;;;;;;27.88;20.45;95698.81;5092622;28;20310;-60
2022/05/20 11:28:00;;;;;;;3.72;1.42;;;;;;;27.84;19.59;95699.44;5112677;28;20220;-60
2022/05/20 11:30:47;;;;;;;3.10;1.38;;;;;;;28.44;22.00;95635.25;5114329;28;20199;-60
2022/05/20 11:33:27;;;;;;;3.55;1.20;;;;;;;28.82;21.14;95652.41;5114120;28;20230;-61
2022/05/20 11:36:15;;;;;;;3.95;0.93;;;;;;;29.18;21.08;95656.84;5112954;28;20187;-63
2022/05/20 11:38:48;;;;;;;1.80;1.15;;;;;;;29.22;19.93;95676.34;5113464;28;20203;-63
2022/05/20 11:41:48;;;;;;;2.85;1.33;;;;;;;28.92;19.79;95667.59;5112795;28;20186;-60
2022/05/20 11:44:24;;;;;;;2.20;1.30;;;;;;;29.43;21.55;95602.47;5108331;28;20238;-63
2022/05/20 11:46:59;;;;;;;3.70;1.50;;;;;;;29.42;19.58;95642.81;5113932;28;20167;-62
2022/05/20 11:49:41;;;;;;;3.78;1.30;;;;;;;29.71;19.12;95644.66;5113679;28;20218;-61
2022/05/20 11:52:22;;;;;;;10.65;1.58;;;;;;;28.90;18.12;95674.88;5112412;28;20682;-61
2022/05/20 11:55:09;;;;;;;2.38;1.77;;;;;;;28.61;18.75;95654.63;5114097;28;20779;-61
2022/05/20 11:57:39;;;;;;;2.83;1.92;;;;;;;28.38;18.21;95641.34;5113794;28;20198;-60
2022/05/20 12:00:19;;;;;;;1.27;1.20;;;;;;;27.99;18.71;95609.28;5113980;28;20262;-61
2022/05/20 12:03:01;;;;;;;8.80;1.77;;;;;;;28.73;21.70;95548.97;5113614;28;20235;-62
2022/05/20 12:05:32;;;;;;;2.45;1.33;;;;;;;29.24;20.79;95559.00;5113579;28;20172;-61
2022/05/20 12:07:57;;;;;;;3.30;1.45;;;;;;;29.26;20.82;95561.41;5113254;28;20282;-62
2022/05/20 12:10:35;;;;;;;1.40;1.10;;;;;;;29.22;19.71;95579.41;5113352;28;20211;-62
2022/05/20 12:13:23;;;;;;;5.75;1.50;;;;;;;29.31;18.60;95596.38;5112819;28;20215;-62
2022/05/20 12:16:15;;;;;;;2.95;1.48;;;;;;;29.99;19.51;95570.59;5111976;28;20191;-61
2022/05/20 12:24:44;;;;;;;3.20;1.50;;;;;;;29.98;17.33;95591.81;5113210;28;20214;-60
2022/05/20 12:27:36;;;;;;;5.30;1.63;;;;;;;29.82;18.29;95559.16;5112978;28;20188;-63
2022/05/20 12:30:10;;;;;;;4.32;1.80;;;;;;;30.01;20.46;95515.25;5113838;28;20171;-63
2022/05/20 12:32:36;;;;;;;3.55;1.50;;;;;;;30.12;20.10;95527.59;5113015;28;20195;-61
2022/05/20 12:35:06;;;;;;;8.35;1.73;;;;;;;29.70;17.45;95574.06;5113584;28;20252;-63